sensor_id;sensor_type;location;lat;lon;timestamp;temperature;humidity
37518;DHT22;23366;52.498;13.446;2023-06-14T03:30:40;14.40;99.90
37518;DHT22;23366;52.498;13.446;2023-06-14T03:33:06;14.40;99.90
37518;DHT22;23366;52.498;13.446;2023-06-14T03:35:31;14.40;99.90
37518;DHT22;23366;52.498;13.446;2023-06-14T03:38:01;14.50;99.90
37518;DHT22;23366;52.498;13.446;2023-06-14T03:40:41;14.50;99.90
37518;DHT22;23366;52.498;13.446;2023-06-14T03:43:13;14.50;99.90
37518;DHT22;23366;52.498;13.446;2023-06-14T03:45:46;14.60;99.90
37518;DHT22;23366;52.498;13.446;2023-06-14T03:48:11;14.60;99.90
37518;DHT22;23366;52.498;13.446;2023-06-14T03:50:45;14.60;99.90
37518;DHT22;23366;52.498;13.446;2023-06-14T03:53:59;14.70;99.90
37518;DHT22;23366;52.498;13.446;2023-06-14T03:57:10;14.70;99.90
37518;DHT22;23366;52.498;13.446;2023-06-14T03:59:50;14.80;99.90
37518;DHT22;23366;52.498;13.446;2023-06-14T04:02:17;14.90;99.90
37518;DHT22;23366;52.498;13.446;2023-06-14T04:05:12;15.10;99.90
37518;DHT22;23366;52.498;13.446;2023-06-14T04:07:38;15.20;99.90
37518;DHT22;23366;52.498;13.446;2023-06-14T04:10:09;15.40;99.90
37518;DHT22;23366;52.498;13.446;2023-06-14T04:12:41;15.60;99.90
37518;DHT22;23366;52.498;13.446;2023-06-14T04:15:10;15.70;99.90
37518;DHT22;23366;52.498;13.446;2023-06-14T04:17:36;15.80;99.90
37518;DHT22;23366;52.498;13.446;2023-06-14T04:20:03;15.90;99.90
37518;DHT22;23366;52.498;13.446;2023-06-14T04:22:35;16.00;99.90
37518;DHT22;23366;52.498;13.446;2023-06-14T04:25:02;16.10;99.90
37518;DHT22;23366;52.498;13.446;2023-06-14T04:27:28;16.30;99.90
37518;DHT22;23366;52.498;13.446;2023-06-14T04:29:56;16.50;99.90
37518;DHT22;23366;52.498;13.446;2023-06-14T04:32:26;16.60;99.90
37518;DHT22;23366;52.498;13.446;2023-06-14T04:34:55;16.80;99.90
37518;DHT22;23366;52.498;13.446;2023-06-14T04:37:21;17.00;99.90
37518;DHT22;23366;52.498;13.446;2023-06-14T04:39:47;17.40;99.90
37518;DHT22;23366;52.498;13.446;2023-06-14T04:42:13;17.80;99.90
37518;DHT22;23366;52.498;13.446;2023-06-14T04:44:41;18.30;99.90
37518;DHT22;23366;52.498;13.446;2023-06-14T04:47:06;18.90;99.90
37518;DHT22;23366;52.498;13.446;2023-06-14T04:49:32;19.90;97.80
37518;DHT22;23366;52.498;13.446;2023-06-14T04:52:07;20.80;94.00
37518;DHT22;23366;52.498;13.446;2023-06-14T04:54:33;22.20;91.10
37518;DHT22;23366;52.498;13.446;2023-06-14T04:56:59;23.20;85.20
37518;DHT22;23366;52.498;13.446;2023-06-14T04:59:25;24.20;79.40
37518;DHT22;23366;52.498;13.446;2023-06-14T05:01:51;25.10;75.40
37518;DHT22;23366;52.498;13.446;2023-06-14T05:04:17;26.00;71.70
37518;DHT22;23366;52.498;13.446;2023-06-14T05:06:43;26.80;68.80
37518;DHT22;23366;52.498;13.446;2023-06-14T05:09:11;26.60;66.40
37518;DHT22;23366;52.498;13.446;2023-06-14T05:11:36;25.90;67.50
37518;DHT22;23366;52.498;13.446;2023-06-14T05:14:02;24.50;69.90
37518;DHT22;23366;52.498;13.446;2023-06-14T05:16:27;23.20;72.30
37518;DHT22;23366;52.498;13.446;2023-06-14T05:18:54;22.00;76.20
37518;DHT22;23366;52.498;13.446;2023-06-14T05:21:23;20.80;80.50
37518;DHT22;23366;52.498;13.446;2023-06-14T05:23:49;20.10;83.40
37518;DHT22;23366;52.498;13.446;2023-06-14T05:26:16;19.50;86.20
37518;DHT22;23366;52.498;13.446;2023-06-14T05:28:41;19.30;88.40
37518;DHT22;23366;52.498;13.446;2023-06-14T05:31:07;18.90;90.20
37518;DHT22;23366;52.498;13.446;2023-06-14T05:33:32;18.50;91.50
37518;DHT22;23366;52.498;13.446;2023-06-14T05:35:58;18.30;92.70
37518;DHT22;23366;52.498;13.446;2023-06-14T05:38:24;18.10;94.10
37518;DHT22;23366;52.498;13.446;2023-06-14T05:40:51;17.90;95.30
37518;DHT22;23366;52.498;13.446;2023-06-14T05:43:16;17.70;96.60
37518;DHT22;23366;52.498;13.446;2023-06-14T05:45:42;17.60;97.60
37518;DHT22;23366;52.498;13.446;2023-06-14T05:48:07;17.50;98.40
37518;DHT22;23366;52.498;13.446;2023-06-14T05:50:33;17.40;99.30
37518;DHT22;23366;52.498;13.446;2023-06-14T05:52:59;17.40;99.70
37518;DHT22;23366;52.498;13.446;2023-06-14T05:55:26;17.20;99.90
37518;DHT22;23366;52.498;13.446;2023-06-14T05:57:52;17.20;99.90
37518;DHT22;23366;52.498;13.446;2023-06-14T06:00:18;17.10;99.90
37518;DHT22;23366;52.498;13.446;2023-06-14T06:02:45;17.00;99.90
37518;DHT22;23366;52.498;13.446;2023-06-14T06:05:11;16.90;99.90
37518;DHT22;23366;52.498;13.446;2023-06-14T06:07:37;16.90;99.90
37518;DHT22;23366;52.498;13.446;2023-06-14T06:10:04;16.80;99.90
37518;DHT22;23366;52.498;13.446;2023-06-14T06:12:30;16.80;99.90
37518;DHT22;23366;52.498;13.446;2023-06-14T06:14:56;16.80;99.90
37518;DHT22;23366;52.498;13.446;2023-06-14T06:17:21;16.80;99.90
37518;DHT22;23366;52.498;13.446;2023-06-14T06:19:47;16.80;99.90
37518;DHT22;23366;52.498;13.446;2023-06-14T06:22:12;16.90;99.90
37518;DHT22;23366;52.498;13.446;2023-06-14T06:24:38;16.90;99.90
37518;DHT22;23366;52.498;13.446;2023-06-14T06:27:04;16.90;99.90
37518;DHT22;23366;52.498;13.446;2023-06-14T06:29:29;16.90;99.90
37518;DHT22;23366;52.498;13.446;2023-06-14T06:31:54;17.00;99.90
37518;DHT22;23366;52.498;13.446;2023-06-14T06:34:21;17.10;99.90
37518;DHT22;23366;52.498;13.446;2023-06-14T06:36:47;17.10;99.90
37518;DHT22;23366;52.498;13.446;2023-06-14T06:39:12;17.20;99.90
37518;DHT22;23366;52.498;13.446;2023-06-14T06:41:40;17.20;99.90
37518;DHT22;23366;52.498;13.446;2023-06-14T06:44:06;17.20;99.90
37518;DHT22;23366;52.498;13.446;2023-06-14T06:46:34;17.30;99.90
37518;DHT22;23366;52.498;13.446;2023-06-14T06:49:00;17.40;99.90
37518;DHT22;23366;52.498;13.446;2023-06-14T06:51:26;17.50;99.90
37518;DHT22;23366;52.498;13.446;2023-06-14T06:53:53;17.70;99.90
37518;DHT22;23366;52.498;13.446;2023-06-14T06:56:20;17.70;99.90
37518;DHT22;23366;52.498;13.446;2023-06-14T06:58:51;17.80;99.90
37518;DHT22;23366;52.498;13.446;2023-06-14T07:01:17;18.00;99.90
37518;DHT22;23366;52.498;13.446;2023-06-14T07:03:43;18.10;99.90
37518;DHT22;23366;52.498;13.446;2023-06-14T07:06:08;18.10;99.90
37518;DHT22;23366;52.498;13.446;2023-06-14T07:08:37;18.40;99.90
37518;DHT22;23366;52.498;13.446;2023-06-14T07:11:06;18.60;99.90
37518;DHT22;23366;52.498;13.446;2023-06-14T07:13:32;18.90;99.90
37518;DHT22;23366;52.498;13.446;2023-06-14T07:15:59;19.10;99.50
37518;DHT22;23366;52.498;13.446;2023-06-14T07:18:26;19.10;98.60
37518;DHT22;23366;52.498;13.446;2023-06-14T07:20:52;19.20;98.30
37518;DHT22;23366;52.498;13.446;2023-06-14T07:23:19;19.00;98.40
37518;DHT22;23366;52.498;13.446;2023-06-14T07:25:45;19.20;98.60
37518;DHT22;23366;52.498;13.446;2023-06-14T07:28:10;19.40;97.40
37518;DHT22;23366;52.498;13.446;2023-06-14T07:30:36;19.80;97.30
37518;DHT22;23366;52.498;13.446;2023-06-14T07:33:01;20.80;95.80
37518;DHT22;23366;52.498;13.446;2023-06-14T07:35:29;21.80;91.80
37518;DHT22;23366;52.498;13.446;2023-06-14T07:37:55;22.60;90.30
37518;DHT22;23366;52.498;13.446;2023-06-14T07:40:21;23.10;85.50
37518;DHT22;23366;52.498;13.446;2023-06-14T07:42:46;23.00;83.20
37518;DHT22;23366;52.498;13.446;2023-06-14T07:45:14;23.30;82.80
37518;DHT22;23366;52.498;13.446;2023-06-14T07:47:39;23.10;81.80
37518;DHT22;23366;52.498;13.446;2023-06-14T07:50:05;22.50;83.40
37518;DHT22;23366;52.498;13.446;2023-06-14T07:52:31;22.20;84.50
37518;DHT22;23366;52.498;13.446;2023-06-14T07:55:02;22.20;84.90
37518;DHT22;23366;52.498;13.446;2023-06-14T07:57:28;22.40;83.60
37518;DHT22;23366;52.498;13.446;2023-06-14T07:59:53;22.80;83.00
37518;DHT22;23366;52.498;13.446;2023-06-14T08:02:19;23.00;81.80
37518;DHT22;23366;52.498;13.446;2023-06-14T08:04:44;23.00;80.50
37518;DHT22;23366;52.498;13.446;2023-06-14T08:07:12;22.50;81.90
37518;DHT22;23366;52.498;13.446;2023-06-14T08:09:40;22.30;82.50
37518;DHT22;23366;52.498;13.446;2023-06-14T08:12:06;22.30;82.80
37518;DHT22;23366;52.498;13.446;2023-06-14T08:14:35;22.40;82.60
37518;DHT22;23366;52.498;13.446;2023-06-14T08:17:00;22.40;82.80
37518;DHT22;23366;52.498;13.446;2023-06-14T08:19:26;22.10;83.00
37518;DHT22;23366;52.498;13.446;2023-06-14T08:21:52;22.10;83.20
37518;DHT22;23366;52.498;13.446;2023-06-14T08:24:21;22.00;82.70
37518;DHT22;23366;52.498;13.446;2023-06-14T08:26:50;22.00;83.60
37518;DHT22;23366;52.498;13.446;2023-06-14T08:29:15;21.90;83.10
37518;DHT22;23366;52.498;13.446;2023-06-14T08:31:43;22.30;83.60
37518;DHT22;23366;52.498;13.446;2023-06-14T08:34:08;23.10;80.80
37518;DHT22;23366;52.498;13.446;2023-06-14T08:36:37;24.10;78.00
37518;DHT22;23366;52.498;13.446;2023-06-14T08:39:03;24.40;75.80
37518;DHT22;23366;52.498;13.446;2023-06-14T08:41:29;24.40;75.40
37518;DHT22;23366;52.498;13.446;2023-06-14T08:43:56;24.00;74.50
37518;DHT22;23366;52.498;13.446;2023-06-14T08:46:21;23.70;76.80
37518;DHT22;23366;52.498;13.446;2023-06-14T08:48:49;23.00;76.00
37518;DHT22;23366;52.498;13.446;2023-06-14T08:51:20;22.70;77.70
37518;DHT22;23366;52.498;13.446;2023-06-14T08:53:53;22.50;78.50
37518;DHT22;23366;52.498;13.446;2023-06-14T08:56:26;22.00;78.90
37518;DHT22;23366;52.498;13.446;2023-06-14T08:58:56;22.20;79.10
37518;DHT22;23366;52.498;13.446;2023-06-14T09:04:29;22.70;78.00
37518;DHT22;23366;52.498;13.446;2023-06-14T09:07:02;22.80;77.50
37518;DHT22;23366;52.498;13.446;2023-06-14T09:09:29;22.70;77.80
37518;DHT22;23366;52.498;13.446;2023-06-14T09:11:55;22.70;78.10
37518;DHT22;23366;52.498;13.446;2023-06-14T09:14:26;22.80;77.60
37518;DHT22;23366;52.498;13.446;2023-06-14T09:16:53;23.10;77.80
37518;DHT22;23366;52.498;13.446;2023-06-14T09:19:23;22.80;76.70
37518;DHT22;23366;52.498;13.446;2023-06-14T09:21:49;22.70;75.80
37518;DHT22;23366;52.498;13.446;2023-06-14T09:24:17;22.40;76.50
37518;DHT22;23366;52.498;13.446;2023-06-14T09:26:51;22.10;77.10
37518;DHT22;23366;52.498;13.446;2023-06-14T09:29:26;22.00;78.10
37518;DHT22;23366;52.498;13.446;2023-06-14T09:31:56;21.80;78.80
37518;DHT22;23366;52.498;13.446;2023-06-14T09:34:34;21.70;79.30
37518;DHT22;23366;52.498;13.446;2023-06-14T09:37:03;21.70;79.60
37518;DHT22;23366;52.498;13.446;2023-06-14T09:39:28;21.80;79.20
37518;DHT22;23366;52.498;13.446;2023-06-14T09:41:54;21.70;78.80
37518;DHT22;23366;52.498;13.446;2023-06-14T09:44:20;21.70;79.40
37518;DHT22;23366;52.498;13.446;2023-06-14T09:46:48;21.90;79.80
37518;DHT22;23366;52.498;13.446;2023-06-14T09:49:13;22.00;78.90
37518;DHT22;23366;52.498;13.446;2023-06-14T09:51:43;22.10;78.70
37518;DHT22;23366;52.498;13.446;2023-06-14T09:54:22;22.40;79.10
37518;DHT22;23366;52.498;13.446;2023-06-14T09:56:48;22.40;78.20
37518;DHT22;23366;52.498;13.446;2023-06-14T09:59:24;22.40;77.90
37518;DHT22;23366;52.498;13.446;2023-06-14T10:01:57;22.40;78.10
37518;DHT22;23366;52.498;13.446;2023-06-14T10:04:24;22.20;78.50
37518;DHT22;23366;52.498;13.446;2023-06-14T10:06:51;22.10;78.50
37518;DHT22;23366;52.498;13.446;2023-06-14T10:09:18;22.20;79.00
37518;DHT22;23366;52.498;13.446;2023-06-14T10:11:44;22.00;78.80
37518;DHT22;23366;52.498;13.446;2023-06-14T10:14:13;21.90;77.90
37518;DHT22;23366;52.498;13.446;2023-06-14T10:16:45;21.90;78.00
37518;DHT22;23366;52.498;13.446;2023-06-14T10:19:34;21.70;78.50
37518;DHT22;23366;52.498;13.446;2023-06-14T10:22:08;21.70;79.60
37518;DHT22;23366;52.498;13.446;2023-06-14T10:24:41;21.60;79.50
37518;DHT22;23366;52.498;13.446;2023-06-14T10:27:08;21.50;79.60
37518;DHT22;23366;52.498;13.446;2023-06-14T10:32:23;21.30;80.10
37518;DHT22;23366;52.498;13.446;2023-06-14T10:35:19;21.20;80.90
37518;DHT22;23366;52.498;13.446;2023-06-14T10:37:46;21.30;80.80
37518;DHT22;23366;52.498;13.446;2023-06-14T10:40:30;21.10;81.00
37518;DHT22;23366;52.498;13.446;2023-06-14T10:42:55;21.10;81.30
37518;DHT22;23366;52.498;13.446;2023-06-14T10:45:21;21.30;81.70
37518;DHT22;23366;52.498;13.446;2023-06-14T10:47:49;21.50;80.20
37518;DHT22;23366;52.498;13.446;2023-06-14T10:50:17;21.60;79.50
37518;DHT22;23366;52.498;13.446;2023-06-14T10:52:45;21.70;79.10
37518;DHT22;23366;52.498;13.446;2023-06-14T10:55:12;21.80;79.30
37518;DHT22;23366;52.498;13.446;2023-06-14T10:57:51;21.80;78.90
37518;DHT22;23366;52.498;13.446;2023-06-14T11:00:29;22.00;79.00
37518;DHT22;23366;52.498;13.446;2023-06-14T11:05:57;22.40;78.30
37518;DHT22;23366;52.498;13.446;2023-06-14T11:11:22;22.60;75.70
37518;DHT22;23366;52.498;13.446;2023-06-14T11:13:49;22.70;75.80
37518;DHT22;23366;52.498;13.446;2023-06-14T11:16:18;22.80;74.50
37518;DHT22;23366;52.498;13.446;2023-06-14T11:18:49;22.70;74.50
37518;DHT22;23366;52.498;13.446;2023-06-14T11:21:18;22.80;74.90
37518;DHT22;23366;52.498;13.446;2023-06-14T11:24:10;22.80;74.50
37518;DHT22;23366;52.498;13.446;2023-06-14T11:26:39;22.80;74.70
37518;DHT22;23366;52.498;13.446;2023-06-14T11:29:05;22.90;73.90
37518;DHT22;23366;52.498;13.446;2023-06-14T11:31:31;23.00;73.90
37518;DHT22;23366;52.498;13.446;2023-06-14T11:33:57;23.10;73.30
37518;DHT22;23366;52.498;13.446;2023-06-14T11:36:29;23.40;72.90
37518;DHT22;23366;52.498;13.446;2023-06-14T11:39:03;23.60;71.50
37518;DHT22;23366;52.498;13.446;2023-06-14T11:44:10;23.80;71.40
37518;DHT22;23366;52.498;13.446;2023-06-14T11:46:44;23.80;71.00
37518;DHT22;23366;52.498;13.446;2023-06-14T11:49:37;24.00;70.70
37518;DHT22;23366;52.498;13.446;2023-06-14T11:52:09;24.00;69.90
37518;DHT22;23366;52.498;13.446;2023-06-14T11:54:37;23.80;70.10
37518;DHT22;23366;52.498;13.446;2023-06-14T11:57:06;23.70;70.10
37518;DHT22;23366;52.498;13.446;2023-06-14T11:59:40;23.30;70.70
37518;DHT22;23366;52.498;13.446;2023-06-14T12:02:09;23.30;70.80
37518;DHT22;23366;52.498;13.446;2023-06-14T12:04:42;23.40;70.30
37518;DHT22;23366;52.498;13.446;2023-06-14T12:07:11;23.40;68.90
37518;DHT22;23366;52.498;13.446;2023-06-14T12:09:41;23.40;69.40
37518;DHT22;23366;52.498;13.446;2023-06-14T12:12:08;23.30;69.70
37518;DHT22;23366;52.498;13.446;2023-06-14T12:14:34;23.30;69.90
37518;DHT22;23366;52.498;13.446;2023-06-14T12:17:06;23.20;70.00
37518;DHT22;23366;52.498;13.446;2023-06-14T12:19:33;22.90;70.60
37518;DHT22;23366;52.498;13.446;2023-06-14T12:22:04;22.70;71.00
37518;DHT22;23366;52.498;13.446;2023-06-14T12:24:30;22.60;71.30
37518;DHT22;23366;52.498;13.446;2023-06-14T12:26:58;22.50;71.00
37518;DHT22;23366;52.498;13.446;2023-06-14T12:29:29;22.50;71.30
37518;DHT22;23366;52.498;13.446;2023-06-14T12:31:55;22.50;71.70
37518;DHT22;23366;52.498;13.446;2023-06-14T12:34:27;22.50;70.50
37518;DHT22;23366;52.498;13.446;2023-06-14T12:36:54;22.40;69.60
37518;DHT22;23366;52.498;13.446;2023-06-14T12:39:20;22.50;69.40
37518;DHT22;23366;52.498;13.446;2023-06-14T12:41:46;22.50;69.20
37518;DHT22;23366;52.498;13.446;2023-06-14T12:44:14;22.60;67.50
37518;DHT22;23366;52.498;13.446;2023-06-14T12:46:41;22.70;66.90
37518;DHT22;23366;52.498;13.446;2023-06-14T12:49:11;22.70;67.20
37518;DHT22;23366;52.498;13.446;2023-06-14T12:51:38;22.70;67.00
37518;DHT22;23366;52.498;13.446;2023-06-14T12:54:04;22.60;67.00
37518;DHT22;23366;52.498;13.446;2023-06-14T12:56:33;22.70;67.30
37518;DHT22;23366;52.498;13.446;2023-06-14T12:58:58;22.90;66.80
37518;DHT22;23366;52.498;13.446;2023-06-14T13:01:24;23.00;64.80
37518;DHT22;23366;52.498;13.446;2023-06-14T13:03:51;23.20;64.40
37518;DHT22;23366;52.498;13.446;2023-06-14T13:06:21;23.20;63.80
37518;DHT22;23366;52.498;13.446;2023-06-14T13:08:48;23.30;63.70
37518;DHT22;23366;52.498;13.446;2023-06-14T13:11:16;23.30;63.40
37518;DHT22;23366;52.498;13.446;2023-06-14T13:13:42;23.50;62.40
37518;DHT22;23366;52.498;13.446;2023-06-14T13:16:11;23.60;62.10
37518;DHT22;23366;52.498;13.446;2023-06-14T13:18:39;23.70;61.90
37518;DHT22;23366;52.498;13.446;2023-06-14T13:21:05;23.80;62.30
37518;DHT22;23366;52.498;13.446;2023-06-14T13:23:31;23.80;62.30
37518;DHT22;23366;52.498;13.446;2023-06-14T13:25:57;23.90;61.10
37518;DHT22;23366;52.498;13.446;2023-06-14T13:28:23;24.00;60.50
37518;DHT22;23366;52.498;13.446;2023-06-14T13:30:48;24.00;61.50
37518;DHT22;23366;52.498;13.446;2023-06-14T13:33:14;24.00;62.00
37518;DHT22;23366;52.498;13.446;2023-06-14T13:35:40;24.10;60.40
37518;DHT22;23366;52.498;13.446;2023-06-14T13:38:05;24.10;59.70
37518;DHT22;23366;52.498;13.446;2023-06-14T13:40:31;24.10;59.60
37518;DHT22;23366;52.498;13.446;2023-06-14T13:42:56;24.10;60.20
37518;DHT22;23366;52.498;13.446;2023-06-14T13:45:22;24.10;60.10
37518;DHT22;23366;52.498;13.446;2023-06-14T13:47:51;24.00;60.20
37518;DHT22;23366;52.498;13.446;2023-06-14T13:50:18;24.10;60.30
37518;DHT22;23366;52.498;13.446;2023-06-14T13:52:45;24.20;59.40
37518;DHT22;23366;52.498;13.446;2023-06-14T13:55:10;24.30;59.40
37518;DHT22;23366;52.498;13.446;2023-06-14T13:57:38;24.40;60.00
37518;DHT22;23366;52.498;13.446;2023-06-14T14:00:04;24.50;60.10
37518;DHT22;23366;52.498;13.446;2023-06-14T14:02:32;24.60;60.40
37518;DHT22;23366;52.498;13.446;2023-06-14T14:04:57;24.60;60.80
37518;DHT22;23366;52.498;13.446;2023-06-14T14:07:25;24.50;60.30
37518;DHT22;23366;52.498;13.446;2023-06-14T14:09:51;24.40;60.40
37518;DHT22;23366;52.498;13.446;2023-06-14T14:12:18;24.30;60.30
37518;DHT22;23366;52.498;13.446;2023-06-14T14:14:44;24.30;61.10
37518;DHT22;23366;52.498;13.446;2023-06-14T14:17:09;24.30;61.30
37518;DHT22;23366;52.498;13.446;2023-06-14T14:19:35;24.30;61.00
37518;DHT22;23366;52.498;13.446;2023-06-14T14:22:01;24.30;61.30
37518;DHT22;23366;52.498;13.446;2023-06-14T14:24:27;24.40;60.00
37518;DHT22;23366;52.498;13.446;2023-06-14T14:26:52;24.30;59.60
37518;DHT22;23366;52.498;13.446;2023-06-14T14:29:19;24.40;60.00
37518;DHT22;23366;52.498;13.446;2023-06-14T14:31:45;24.50;59.80
37518;DHT22;23366;52.498;13.446;2023-06-14T14:34:11;24.50;59.80
37518;DHT22;23366;52.498;13.446;2023-06-14T14:36:37;24.60;59.40
37518;DHT22;23366;52.498;13.446;2023-06-14T14:39:04;24.50;58.40
37518;DHT22;23366;52.498;13.446;2023-06-14T14:41:29;24.50;58.40
37518;DHT22;23366;52.498;13.446;2023-06-14T14:43:55;24.50;57.70
37518;DHT22;23366;52.498;13.446;2023-06-14T14:46:20;24.50;57.30
37518;DHT22;23366;52.498;13.446;2023-06-14T14:48:46;24.50;57.70
37518;DHT22;23366;52.498;13.446;2023-06-14T14:51:12;24.40;58.10
37518;DHT22;23366;52.498;13.446;2023-06-14T14:53:37;24.40;58.40
37518;DHT22;23366;52.498;13.446;2023-06-14T14:56:03;24.40;58.30
37518;DHT22;23366;52.498;13.446;2023-06-14T14:58:28;24.40;57.50
37518;DHT22;23366;52.498;13.446;2023-06-14T15:00:54;24.40;57.50
37518;DHT22;23366;52.498;13.446;2023-06-14T15:03:20;24.30;58.00
37518;DHT22;23366;52.498;13.446;2023-06-14T15:05:46;24.00;59.40
37518;DHT22;23366;52.498;13.446;2023-06-14T15:08:12;23.80;60.00
37518;DHT22;23366;52.498;13.446;2023-06-14T15:10:38;23.60;60.80
37518;DHT22;23366;52.498;13.446;2023-06-14T15:13:09;23.30;61.30
37518;DHT22;23366;52.498;13.446;2023-06-14T15:15:35;23.10;62.00
37518;DHT22;23366;52.498;13.446;2023-06-14T15:18:01;22.90;62.10
37518;DHT22;23366;52.498;13.446;2023-06-14T15:20:26;22.80;62.60
37518;DHT22;23366;52.498;13.446;2023-06-14T15:22:53;22.80;62.60
37518;DHT22;23366;52.498;13.446;2023-06-14T15:25:25;22.80;62.50
37518;DHT22;23366;52.498;13.446;2023-06-14T15:27:50;22.70;62.50
37518;DHT22;23366;52.498;13.446;2023-06-14T15:30:16;22.70;62.70
37518;DHT22;23366;52.498;13.446;2023-06-14T15:32:42;22.70;62.60
37518;DHT22;23366;52.498;13.446;2023-06-14T15:35:08;22.80;62.60
37518;DHT22;23366;52.498;13.446;2023-06-14T15:37:54;22.80;62.30
37518;DHT22;23366;52.498;13.446;2023-06-14T15:40:25;22.90;62.40
37518;DHT22;23366;52.498;13.446;2023-06-14T15:42:56;23.00;62.30
37518;DHT22;23366;52.498;13.446;2023-06-14T15:45:25;23.10;62.40
37518;DHT22;23366;52.498;13.446;2023-06-14T15:47:57;23.10;62.50
37518;DHT22;23366;52.498;13.446;2023-06-14T15:50:23;23.10;62.40
37518;DHT22;23366;52.498;13.446;2023-06-14T15:52:48;23.20;62.50
37518;DHT22;23366;52.498;13.446;2023-06-14T15:55:14;23.00;62.50
37518;DHT22;23366;52.498;13.446;2023-06-14T15:57:43;22.90;62.60
37518;DHT22;23366;52.498;13.446;2023-06-14T16:00:09;22.80;63.10
37518;DHT22;23366;52.498;13.446;2023-06-14T16:02:35;22.70;63.30
37518;DHT22;23366;52.498;13.446;2023-06-14T16:05:00;22.60;63.40
37518;DHT22;23366;52.498;13.446;2023-06-14T16:07:26;22.60;63.20
37518;DHT22;23366;52.498;13.446;2023-06-14T16:09:51;22.50;64.00
37518;DHT22;23366;52.498;13.446;2023-06-14T16:12:20;22.40;64.20
37518;DHT22;23366;52.498;13.446;2023-06-14T16:14:47;22.40;64.40
37518;DHT22;23366;52.498;13.446;2023-06-14T16:17:13;22.40;64.60
37518;DHT22;23366;52.498;13.446;2023-06-14T16:19:39;22.30;64.60
37518;DHT22;23366;52.498;13.446;2023-06-14T16:22:05;22.40;64.60
37518;DHT22;23366;52.498;13.446;2023-06-14T16:24:31;22.30;64.60
37518;DHT22;23366;52.498;13.446;2023-06-14T16:26:56;22.30;64.00
37518;DHT22;23366;52.498;13.446;2023-06-14T16:29:24;22.20;64.20
37518;DHT22;23366;52.498;13.446;2023-06-14T16:31:58;22.10;64.40
37518;DHT22;23366;52.498;13.446;2023-06-14T16:34:44;22.00;64.80
37518;DHT22;23366;52.498;13.446;2023-06-14T16:37:20;22.00;64.80
37518;DHT22;23366;52.498;13.446;2023-06-14T16:39:46;21.90;65.00
37518;DHT22;23366;52.498;13.446;2023-06-14T16:42:17;22.00;65.10
37518;DHT22;23366;52.498;13.446;2023-06-14T16:44:43;21.90;65.10
37518;DHT22;23366;52.498;13.446;2023-06-14T16:47:11;21.90;65.60
37518;DHT22;23366;52.498;13.446;2023-06-14T16:49:37;22.00;65.30
37518;DHT22;23366;52.498;13.446;2023-06-14T16:52:03;22.00;64.90
37518;DHT22;23366;52.498;13.446;2023-06-14T16:54:29;22.00;65.10
37518;DHT22;23366;52.498;13.446;2023-06-14T16:56:54;22.00;65.30
37518;DHT22;23366;52.498;13.446;2023-06-14T16:59:20;21.90;65.40
37518;DHT22;23366;52.498;13.446;2023-06-14T17:01:51;21.80;65.60
37518;DHT22;23366;52.498;13.446;2023-06-14T17:04:19;21.80;66.30
37518;DHT22;23366;52.498;13.446;2023-06-14T17:06:45;21.70;66.30
37518;DHT22;23366;52.498;13.446;2023-06-14T17:09:11;21.70;67.10
37518;DHT22;23366;52.498;13.446;2023-06-14T17:11:38;21.60;66.20
37518;DHT22;23366;52.498;13.446;2023-06-14T17:14:06;21.60;66.60
37518;DHT22;23366;52.498;13.446;2023-06-14T17:16:36;21.60;66.80
37518;DHT22;23366;52.498;13.446;2023-06-14T17:19:05;21.60;66.90
37518;DHT22;23366;52.498;13.446;2023-06-14T17:21:41;21.60;66.70
37518;DHT22;23366;52.498;13.446;2023-06-14T17:24:15;21.60;66.90
37518;DHT22;23366;52.498;13.446;2023-06-14T17:26:51;21.60;67.30
37518;DHT22;23366;52.498;13.446;2023-06-14T17:29:19;21.60;67.10
37518;DHT22;23366;52.498;13.446;2023-06-14T17:31:46;21.40;66.80
37518;DHT22;23366;52.498;13.446;2023-06-14T17:34:12;21.40;67.30
37518;DHT22;23366;52.498;13.446;2023-06-14T17:36:38;21.30;67.70
37518;DHT22;23366;52.498;13.446;2023-06-14T17:39:03;21.40;67.80
37518;DHT22;23366;52.498;13.446;2023-06-14T17:41:29;21.40;68.00
37518;DHT22;23366;52.498;13.446;2023-06-14T17:43:58;21.30;68.00
37518;DHT22;23366;52.498;13.446;2023-06-14T17:46:23;21.30;67.90
37518;DHT22;23366;52.498;13.446;2023-06-14T17:48:49;21.30;68.10
37518;DHT22;23366;52.498;13.446;2023-06-14T17:51:15;21.30;68.30
37518;DHT22;23366;52.498;13.446;2023-06-14T17:53:42;21.30;68.30
37518;DHT22;23366;52.498;13.446;2023-06-14T17:56:07;21.20;68.50
37518;DHT22;23366;52.498;13.446;2023-06-14T17:58:33;21.20;68.70
37518;DHT22;23366;52.498;13.446;2023-06-14T18:01:01;21.20;69.00
37518;DHT22;23366;52.498;13.446;2023-06-14T18:03:26;21.20;69.00
37518;DHT22;23366;52.498;13.446;2023-06-14T18:05:52;21.20;68.80
37518;DHT22;23366;52.498;13.446;2023-06-14T18:08:18;21.20;69.20
37518;DHT22;23366;52.498;13.446;2023-06-14T18:10:43;21.20;69.20
37518;DHT22;23366;52.498;13.446;2023-06-14T18:13:09;21.20;69.30
37518;DHT22;23366;52.498;13.446;2023-06-14T18:15:34;21.20;69.20
37518;DHT22;23366;52.498;13.446;2023-06-14T18:18:00;21.20;69.40
37518;DHT22;23366;52.498;13.446;2023-06-14T18:20:25;21.20;69.20
37518;DHT22;23366;52.498;13.446;2023-06-14T18:22:51;21.10;69.30
37518;DHT22;23366;52.498;13.446;2023-06-14T18:25:17;21.10;69.40
37518;DHT22;23366;52.498;13.446;2023-06-14T18:27:47;21.10;69.50
37518;DHT22;23366;52.498;13.446;2023-06-14T18:30:13;21.10;69.20
37518;DHT22;23366;52.498;13.446;2023-06-14T18:32:39;21.10;69.30
37518;DHT22;23366;52.498;13.446;2023-06-14T18:35:06;21.10;69.50
37518;DHT22;23366;52.498;13.446;2023-06-14T18:37:32;21.10;69.60
37518;DHT22;23366;52.498;13.446;2023-06-14T18:39:58;21.10;69.00
37518;DHT22;23366;52.498;13.446;2023-06-14T18:42:23;21.10;69.10
37518;DHT22;23366;52.498;13.446;2023-06-14T18:44:50;21.10;68.80
37518;DHT22;23366;52.498;13.446;2023-06-14T18:47:16;21.10;69.10
37518;DHT22;23366;52.498;13.446;2023-06-14T18:49:41;21.10;69.20
37518;DHT22;23366;52.498;13.446;2023-06-14T18:52:08;21.10;69.40
37518;DHT22;23366;52.498;13.446;2023-06-14T18:54:34;21.00;69.40
37518;DHT22;23366;52.498;13.446;2023-06-14T18:56:59;21.00;69.60
37518;DHT22;23366;52.498;13.446;2023-06-14T18:59:25;20.90;69.60
37518;DHT22;23366;52.498;13.446;2023-06-14T19:01:51;20.90;70.20
37518;DHT22;23366;52.498;13.446;2023-06-14T19:04:17;20.90;70.10